createdAt,value
2023-03-26T00:01:33.726Z,0.93
2023-03-26T00:04:01.825Z,0.80
2023-03-26T00:06:36.773Z,0.75
2023-03-26T00:09:06.959Z,1.23
2023-03-26T00:11:34.829Z,0.77
2023-03-26T00:14:02.693Z,0.30
2023-03-26T00:16:31.408Z,0.88
2023-03-26T00:18:59.971Z,0.52
2023-03-26T00:21:29.237Z,0.80
2023-03-26T00:24:04.713Z,1.33
2023-03-26T00:26:37.647Z,0.47
2023-03-26T00:29:06.700Z,1.15
2023-03-26T00:31:34.771Z,0.13
2023-03-26T00:34:03.884Z,1.40
2023-03-26T00:36:32.137Z,1.95
2023-03-26T00:38:59.702Z,1.45
2023-03-26T00:41:30.847Z,0.50
2023-03-26T00:44:00.209Z,0.55
2023-03-26T00:46:30.612Z,0.98
2023-03-26T00:49:01.855Z,0.90
2023-03-26T00:51:30.080Z,0.83
2023-03-26T00:53:57.962Z,1.10
2023-03-26T00:56:26.183Z,1.00
2023-03-26T00:58:53.925Z,0.10
2023-03-26T01:01:27.315Z,3.10
2023-03-26T01:04:08.373Z,2.08
2023-03-26T01:06:41.243Z,1.27
2023-03-26T01:09:16.335Z,1.25
2023-03-26T01:11:44.235Z,0.50
2023-03-26T01:14:16.851Z,1.83
2023-03-26T01:16:56.696Z,1.00
2023-03-26T01:19:44.681Z,1.08
2023-03-26T01:22:18.014Z,0.65
2023-03-26T01:24:52.184Z,0.40
2023-03-26T01:27:34.594Z,0.20
2023-03-26T01:30:11.177Z,0.80
2023-03-26T01:32:57.780Z,0.70
2023-03-26T01:35:46.112Z,1.20
2023-03-26T01:38:13.490Z,1.58
2023-03-26T01:41:03.439Z,0.50
2023-03-26T01:43:33.723Z,0.88
2023-03-26T01:46:05.415Z,2.83
2023-03-26T01:48:38.559Z,0.93
2023-03-26T01:51:07.293Z,2.67
2023-03-26T01:53:38.406Z,1.10
2023-03-26T01:56:13.317Z,1.33
2023-03-26T01:59:05.753Z,2.62
2023-03-26T02:01:46.156Z,1.55
2023-03-26T02:04:48.169Z,2.08
2023-03-26T02:07:45.052Z,4.28
2023-03-26T02:10:21.556Z,1.02
2023-03-26T02:12:50.031Z,1.48
2023-03-26T02:15:17.614Z,0.95
2023-03-26T02:17:45.043Z,2.12
2023-03-26T02:20:14.310Z,1.05
2023-03-26T02:22:45.601Z,1.37
2023-03-26T02:25:18.945Z,1.87
2023-03-26T02:27:47.806Z,1.05
2023-03-26T02:30:21.664Z,1.85
2023-03-26T02:32:52.350Z,1.02
2023-03-26T02:35:21.914Z,1.37
2023-03-26T02:37:50.874Z,1.45
2023-03-26T02:40:21.180Z,1.50
2023-03-26T02:42:49.628Z,1.12
2023-03-26T02:45:17.319Z,1.70
2023-03-26T02:47:47.634Z,2.30
2023-03-26T02:50:16.921Z,1.92
2023-03-26T02:52:45.417Z,1.70
2023-03-26T02:55:12.884Z,0.70
2023-03-26T02:57:41.296Z,1.25
2023-03-26T03:00:11.074Z,0.82
2023-03-26T03:02:39.824Z,0.65
2023-03-26T03:05:09.226Z,1.52
2023-03-26T03:07:38.640Z,0.60
2023-03-26T03:10:09.984Z,1.00
2023-03-26T03:12:41.248Z,1.30
2023-03-26T03:15:09.288Z,1.25
2023-03-26T03:17:36.743Z,0.90
2023-03-26T03:20:06.869Z,1.92
2023-03-26T03:22:34.404Z,1.17
2023-03-26T03:25:02.658Z,0.80
2023-03-26T03:27:30.657Z,0.65
2023-03-26T03:29:59.039Z,1.00
2023-03-26T03:32:27.722Z,0.75
2023-03-26T03:34:56.494Z,1.30
2023-03-26T03:37:26.334Z,2.00
2023-03-26T03:39:54.187Z,1.75
2023-03-26T03:42:22.305Z,1.23
2023-03-26T03:44:50.591Z,1.58
2023-03-26T03:47:20.340Z,1.85
2023-03-26T03:49:48.325Z,2.28
2023-03-26T03:52:16.394Z,1.45
2023-03-26T03:54:43.829Z,2.03
2023-03-26T03:57:12.183Z,1.48
2023-03-26T03:59:47.903Z,1.65
2023-03-26T04:02:34.683Z,2.55
2023-03-26T04:05:04.416Z,4.03
2023-03-26T04:07:32.683Z,3.50
2023-03-26T04:10:08.329Z,1.45
2023-03-26T04:12:37.230Z,1.67
2023-03-26T04:15:05.905Z,1.37
2023-03-26T04:17:33.505Z,2.15
2023-03-26T04:20:14.505Z,1.90
2023-03-26T04:22:43.857Z,3.58
2023-03-26T04:25:12.467Z,2.58
2023-03-26T04:27:43.976Z,2.63
2023-03-26T04:30:15.702Z,3.05
2023-03-26T04:32:44.705Z,2.55
2023-03-26T04:35:16.767Z,5.07
2023-03-26T04:37:46.109Z,2.55
2023-03-26T04:40:18.360Z,2.67
2023-03-26T04:42:46.725Z,2.47
2023-03-26T04:45:17.751Z,3.05
2023-03-26T04:47:46.434Z,2.45
2023-03-26T04:50:14.726Z,1.35
2023-03-26T04:52:45.084Z,1.92
2023-03-26T04:56:06.449Z,4.82
2023-03-26T04:58:35.704Z,3.35
2023-03-26T05:01:10.277Z,1.95
2023-03-26T05:03:39.195Z,3.80
2023-03-26T05:06:09.982Z,1.15
2023-03-26T05:08:37.440Z,1.87
2023-03-26T05:11:11.361Z,3.20
2023-03-26T05:13:39.622Z,4.37
2023-03-26T05:16:08.678Z,3.30
2023-03-26T05:18:36.693Z,1.30
2023-03-26T05:21:05.355Z,2.15
2023-03-26T05:23:33.343Z,2.10
2023-03-26T05:26:01.710Z,6.45
2023-03-26T05:28:29.497Z,8.80
2023-03-26T05:30:57.217Z,6.82
2023-03-26T05:33:25.063Z,8.48
2023-03-26T05:36:05.597Z,7.68
2023-03-26T05:38:33.417Z,6.90
2023-03-26T05:41:03.789Z,5.25
2023-03-26T05:43:31.356Z,4.57
2023-03-26T05:45:59.235Z,3.62
2023-03-26T05:48:27.921Z,6.10
2023-03-26T05:50:57.695Z,5.35
2023-03-26T05:53:27.105Z,5.47
2023-03-26T05:56:06.455Z,3.90
2023-03-26T05:58:36.676Z,3.03
2023-03-26T06:01:08.407Z,6.75
2023-03-26T06:03:39.555Z,5.95
2023-03-26T06:06:09.741Z,3.30
2023-03-26T06:08:37.941Z,3.05
2023-03-26T06:11:08.086Z,6.85
2023-03-26T06:13:36.034Z,2.55
2023-03-26T06:16:03.853Z,3.65
2023-03-26T06:18:31.651Z,2.10
2023-03-26T06:20:59.578Z,3.70
2023-03-26T06:23:28.351Z,2.85
2023-03-26T06:25:56.208Z,2.08
2023-03-26T06:28:24.459Z,0.98
2023-03-26T06:30:52.827Z,2.10
2023-03-26T06:33:22.130Z,2.28
2023-03-26T06:35:51.486Z,5.50
2023-03-26T06:38:19.393Z,2.30
2023-03-26T06:40:47.006Z,1.85
2023-03-26T06:43:14.762Z,2.12
2023-03-26T06:45:43.589Z,1.52
2023-03-26T06:48:12.785Z,3.00
2023-03-26T06:50:40.837Z,3.50
2023-03-26T06:53:09.996Z,1.87
2023-03-26T06:55:38.296Z,3.58
2023-03-26T06:58:06.428Z,1.10
2023-03-26T07:00:35.837Z,1.17
2023-03-26T07:03:06.210Z,1.67
2023-03-26T07:05:43.114Z,3.45
2023-03-26T07:08:10.560Z,3.53
2023-03-26T07:10:39.310Z,1.67
2023-03-26T07:13:07.523Z,2.03
2023-03-26T07:15:35.867Z,2.85
2023-03-26T07:18:03.476Z,3.58
2023-03-26T07:20:31.455Z,1.90
2023-03-26T07:22:59.573Z,2.65
2023-03-26T07:25:29.198Z,2.22
2023-03-26T07:28:03.658Z,1.42
2023-03-26T07:30:50.583Z,1.83
2023-03-26T07:33:30.543Z,3.67
2023-03-26T07:36:12.660Z,3.08
2023-03-26T07:38:49.667Z,2.05
2023-03-26T07:41:29.394Z,1.62
2023-03-26T07:44:04.269Z,1.80
2023-03-26T07:46:37.061Z,3.17
2023-03-26T07:49:06.974Z,1.83
2023-03-26T07:51:35.104Z,2.58
2023-03-26T07:54:04.267Z,6.72
2023-03-26T07:56:49.413Z,3.67
2023-03-26T07:59:39.410Z,2.55
2023-03-26T08:02:27.239Z,1.73
2023-03-26T08:05:18.960Z,2.90
2023-03-26T08:08:02.837Z,4.05
2023-03-26T08:10:52.505Z,2.65
2023-03-26T08:13:25.448Z,2.00
2023-03-26T08:16:05.727Z,3.03
2023-03-26T08:18:47.610Z,3.25
2023-03-26T08:21:22.342Z,1.60
2023-03-26T08:24:07.995Z,5.40
2023-03-26T08:26:59.426Z,2.90
2023-03-26T08:29:45.230Z,1.65
2023-03-26T08:32:16.409Z,1.45
2023-03-26T08:34:43.898Z,1.70
2023-03-26T08:37:12.985Z,2.03
2023-03-26T08:39:42.034Z,2.67
2023-03-26T08:42:24.618Z,1.12
2023-03-26T08:45:29.404Z,2.35
2023-03-26T08:48:03.674Z,1.40
2023-03-26T08:50:49.833Z,2.87
2023-03-26T08:53:24.783Z,1.87
2023-03-26T08:56:22.049Z,1.85
2023-03-26T08:59:19.746Z,2.00
2023-03-26T09:02:19.759Z,1.40
2023-03-26T09:05:14.604Z,2.40
2023-03-26T09:08:01.719Z,4.82
2023-03-26T09:10:32.104Z,3.42
2023-03-26T09:13:24.267Z,1.12
2023-03-26T09:16:17.460Z,0.93
2023-03-26T09:19:22.617Z,3.87
2023-03-26T09:22:17.105Z,2.05
2023-03-26T09:25:04.768Z,3.25
2023-03-26T09:27:38.105Z,2.12
2023-03-26T09:30:30.259Z,1.50
2023-03-26T09:33:28.420Z,1.75
2023-03-26T09:36:08.476Z,2.47
2023-03-26T09:39:09.294Z,2.62
2023-03-26T09:42:09.578Z,2.47
2023-03-26T09:44:58.243Z,1.50
2023-03-26T09:47:26.282Z,1.48
2023-03-26T09:50:15.474Z,1.30
2023-03-26T09:53:09.314Z,2.00
2023-03-26T09:56:16.521Z,2.40
2023-03-26T09:58:46.959Z,2.05
2023-03-26T10:01:20.486Z,2.10
2023-03-26T10:04:06.987Z,3.75
2023-03-26T10:06:49.680Z,2.33
2023-03-26T10:09:36.055Z,1.73
2023-03-26T10:12:28.363Z,1.20
2023-03-26T10:14:59.038Z,2.00
2023-03-26T10:17:55.631Z,1.60
2023-03-26T10:20:38.043Z,5.25
2023-03-26T10:23:18.528Z,2.08
2023-03-26T10:26:17.354Z,5.47
2023-03-26T10:29:13.046Z,2.75
2023-03-26T10:32:24.029Z,3.10
2023-03-26T10:34:57.039Z,8.40
2023-03-26T10:37:37.074Z,3.15
2023-03-26T10:40:23.654Z,2.60
2023-03-26T10:43:29.651Z,2.70
2023-03-26T10:46:09.780Z,2.30
2023-03-26T10:48:56.525Z,0.73
2023-03-26T10:51:48.819Z,1.62
2023-03-26T10:57:54.225Z,2.60
2023-03-26T11:00:27.034Z,5.07
2023-03-26T11:03:16.052Z,1.80
2023-03-26T11:05:46.709Z,2.40
2023-03-26T11:08:56.037Z,3.17
2023-03-26T11:11:42.180Z,2.35
2023-03-26T11:14:33.896Z,2.25
2023-03-26T11:17:08.502Z,3.67
2023-03-26T11:19:53.135Z,5.45
2023-03-26T11:22:30.043Z,2.65
2023-03-26T11:25:05.425Z,2.83
2023-03-26T11:27:40.518Z,2.17
2023-03-26T11:30:17.027Z,1.95
2023-03-26T11:32:46.461Z,2.65
2023-03-26T11:35:40.939Z,3.05
2023-03-26T11:38:23.281Z,3.85
2023-03-26T11:40:53.329Z,1.70
2023-03-26T11:43:32.035Z,2.00
2023-03-26T11:45:59.530Z,2.17
2023-03-26T11:48:44.398Z,1.27
2023-03-26T11:51:18.773Z,2.03
2023-03-26T11:53:46.780Z,1.77
2023-03-26T11:56:18.304Z,2.67
2023-03-26T11:59:08.905Z,3.60
2023-03-26T12:01:56.564Z,2.67
2023-03-26T12:04:34.997Z,1.00
2023-03-26T12:07:23.814Z,1.83
2023-03-26T12:09:52.950Z,0.73
2023-03-26T12:12:20.985Z,1.42
2023-03-26T12:14:48.540Z,2.22
2023-03-26T12:17:31.913Z,4.57
2023-03-26T12:20:01.127Z,6.57
2023-03-26T12:22:38.530Z,3.78
2023-03-26T12:25:25.912Z,0.60
2023-03-26T12:28:04.807Z,0.90
2023-03-26T12:30:39.621Z,0.65
2023-03-26T12:33:16.293Z,1.48
2023-03-26T12:35:44.071Z,1.95
2023-03-26T12:38:37.263Z,0.82
2023-03-26T12:41:08.018Z,1.05
2023-03-26T12:44:49.858Z,0.90
2023-03-26T12:47:54.377Z,0.73
2023-03-26T12:49:18.799Z,1.17
2023-03-26T12:52:25.212Z,1.10
2023-03-26T12:54:55.923Z,3.87
2023-03-26T12:57:25.271Z,4.78
2023-03-26T13:00:21.353Z,20.05
2023-03-26T13:03:05.678Z,2.97
2023-03-26T13:05:55.434Z,1.62
2023-03-26T13:08:46.601Z,3.37
2023-03-26T13:11:27.529Z,18.17
2023-03-26T13:14:10.644Z,1.42
2023-03-26T13:17:04.961Z,1.70
2023-03-26T13:19:53.947Z,1.02
2023-03-26T13:22:42.487Z,1.70
2023-03-26T13:25:25.679Z,0.95
2023-03-26T13:27:56.361Z,0.50
2023-03-26T13:30:52.339Z,1.20
2023-03-26T13:33:43.344Z,1.95
2023-03-26T13:36:23.114Z,0.47
2023-03-26T13:39:10.897Z,1.58
2023-03-26T13:41:50.084Z,0.45
2023-03-26T13:44:52.737Z,0.93
2023-03-26T13:47:36.692Z,0.60
2023-03-26T13:50:29.094Z,0.80
2023-03-26T13:53:02.220Z,0.60
2023-03-26T13:55:40.120Z,0.93
2023-03-26T13:58:10.881Z,0.50
2023-03-26T14:00:41.962Z,0.80
2023-03-26T14:03:26.379Z,0.90
2023-03-26T14:05:55.940Z,0.50
2023-03-26T14:08:31.663Z,0.80
2023-03-26T14:11:44.377Z,0.98
2023-03-26T14:14:32.293Z,0.40
2023-03-26T14:17:05.674Z,0.22
2023-03-26T14:19:40.319Z,1.77
2023-03-26T14:22:18.264Z,0.80
2023-03-26T14:25:08.593Z,0.82
2023-03-26T14:28:13.983Z,0.95
2023-03-26T14:31:20.744Z,0.82
2023-03-26T14:34:17.655Z,1.65
2023-03-26T14:37:28.094Z,0.95
2023-03-26T14:40:20.490Z,0.88
2023-03-26T14:43:12.766Z,0.37
2023-03-26T14:46:11.011Z,0.50
2023-03-26T14:48:48.335Z,1.73
2023-03-26T14:51:41.458Z,5.55
2023-03-26T14:54:13.286Z,0.70
2023-03-26T14:56:50.082Z,0.30
2023-03-26T14:59:29.511Z,0.32
2023-03-26T15:02:22.284Z,0.85
2023-03-26T15:04:49.732Z,1.40
2023-03-26T15:07:36.112Z,1.15
2023-03-26T15:10:22.698Z,1.58
2023-03-26T15:13:21.622Z,1.52
2023-03-26T15:15:55.318Z,0.93
2023-03-26T15:18:32.305Z,1.20
2023-03-26T15:21:24.692Z,0.62
2023-03-26T15:24:13.414Z,1.85
2023-03-26T15:27:01.090Z,0.88
2023-03-26T15:29:40.559Z,0.98
2023-03-26T15:32:26.753Z,0.20
2023-03-26T15:35:16.939Z,1.08
2023-03-26T15:38:12.614Z,2.80
2023-03-26T15:41:01.628Z,0.30
2023-03-26T15:44:23.618Z,0.60
2023-03-26T15:47:15.578Z,0.60
2023-03-26T15:49:59.207Z,1.20
2023-03-26T15:52:32.499Z,3.17
2023-03-26T15:54:59.846Z,2.92
2023-03-26T15:57:44.075Z,2.53
2023-03-26T16:00:22.192Z,3.40
2023-03-26T16:03:10.908Z,4.40
2023-03-26T16:05:57.284Z,1.65
2023-03-26T16:08:47.005Z,1.52
2023-03-26T16:11:15.402Z,3.45
2023-03-26T16:13:49.508Z,1.77
2023-03-26T16:16:24.894Z,1.10
2023-03-26T16:18:58.988Z,1.35
2023-03-26T16:21:36.490Z,1.60
2023-03-26T16:24:07.363Z,1.05
2023-03-26T16:26:43.626Z,4.12
2023-03-26T16:29:18.139Z,1.27
2023-03-26T16:32:10.546Z,1.42
2023-03-26T16:34:42.775Z,1.95
2023-03-26T16:37:32.216Z,1.70
2023-03-26T16:40:22.278Z,2.05
2023-03-26T16:43:20.113Z,1.77
2023-03-26T16:45:57.031Z,7.85
2023-03-26T16:48:49.132Z,2.10
2023-03-26T16:51:22.380Z,2.95
2023-03-26T16:54:13.356Z,3.10
2023-03-26T16:56:47.463Z,4.50
2023-03-26T16:59:42.991Z,2.62
2023-03-26T17:02:19.840Z,2.45
2023-03-26T17:04:50.737Z,2.47
2023-03-26T17:07:24.243Z,1.98
2023-03-26T17:10:08.710Z,2.45
2023-03-26T17:13:10.921Z,2.53
2023-03-26T17:16:12.763Z,5.60
2023-03-26T17:18:55.734Z,4.35
2023-03-26T17:21:46.318Z,4.37
2023-03-26T17:24:33.844Z,5.63
2023-03-26T17:27:26.597Z,2.80
2023-03-26T17:30:16.105Z,3.97
2023-03-26T17:33:13.599Z,4.57
2023-03-26T17:35:46.454Z,5.57
2023-03-26T17:38:16.763Z,3.97
2023-03-26T17:41:00.637Z,3.87
2023-03-26T17:43:51.421Z,4.47
2023-03-26T17:46:37.998Z,4.40
2023-03-26T17:49:31.483Z,3.83
2023-03-26T17:52:02.058Z,5.68
2023-03-26T17:54:44.168Z,4.72
2023-03-26T17:59:59.073Z,3.65
2023-03-26T18:02:43.656Z,5.62
2023-03-26T18:05:13.713Z,3.47
2023-03-26T18:08:19.755Z,4.47
2023-03-26T18:11:05.459Z,4.43
2023-03-26T18:14:02.791Z,3.37
2023-03-26T18:16:44.236Z,3.80
2023-03-26T18:19:19.843Z,4.20
2023-03-26T18:21:53.350Z,4.25
2023-03-26T18:24:30.289Z,3.33
2023-03-26T18:27:03.611Z,4.20
2023-03-26T18:29:33.355Z,5.15
2023-03-26T18:32:03.900Z,3.85
2023-03-26T18:34:34.058Z,4.97
2023-03-26T18:37:08.518Z,5.28
2023-03-26T18:39:36.568Z,7.30
2023-03-26T18:42:06.009Z,4.25
2023-03-26T18:44:36.706Z,4.75
2023-03-26T18:47:06.453Z,6.75
2023-03-26T18:49:33.936Z,4.35
2023-03-26T18:52:01.376Z,6.32
2023-03-26T18:54:33.846Z,4.45
2023-03-26T19:02:13.911Z,6.70
2023-03-26T19:04:46.123Z,8.55
2023-03-26T19:07:18.075Z,6.62
2023-03-26T19:09:45.580Z,6.20
2023-03-26T19:12:25.207Z,8.02
2023-03-26T19:15:07.783Z,6.28
2023-03-26T19:17:40.781Z,7.53
2023-03-26T19:20:16.742Z,7.97
2023-03-26T19:22:45.398Z,7.28
2023-03-26T19:25:21.689Z,6.50
2023-03-26T19:27:50.691Z,10.73
2023-03-26T19:30:28.488Z,9.88
2023-03-26T19:32:56.617Z,7.10
2023-03-26T19:35:42.557Z,12.20
2023-03-26T19:38:29.697Z,8.45
2023-03-26T19:40:58.112Z,6.62
2023-03-26T19:43:26.219Z,7.72
2023-03-26T19:46:00.352Z,9.23
2023-03-26T19:48:45.264Z,10.43
2023-03-26T19:51:31.546Z,7.05
2023-03-26T19:54:03.067Z,11.02
2023-03-26T19:56:30.817Z,7.10
2023-03-26T19:58:59.190Z,8.10
2023-03-26T20:01:29.203Z,10.35
2023-03-26T20:04:00.898Z,7.32
2023-03-26T20:06:41.491Z,8.43
2023-03-26T20:11:39.708Z,6.62
2023-03-26T20:14:13.018Z,3.87
2023-03-26T20:16:42.810Z,4.95
2023-03-26T20:19:11.424Z,5.65
2023-03-26T20:21:40.245Z,5.85
2023-03-26T20:24:12.948Z,5.90
2023-03-26T20:26:40.642Z,5.00
2023-03-26T20:29:08.349Z,6.60
2023-03-26T20:31:35.922Z,5.53
2023-03-26T20:34:03.564Z,4.55
2023-03-26T20:36:34.256Z,6.43
2023-03-26T20:39:08.441Z,5.62
2023-03-26T20:41:42.769Z,5.87
2023-03-26T20:44:15.956Z,5.50
2023-03-26T20:46:45.369Z,6.10
2023-03-26T20:49:12.934Z,6.12
2023-03-26T20:51:42.022Z,5.57
2023-03-26T20:54:30.335Z,6.57
2023-03-26T20:56:58.145Z,10.15
2023-03-26T20:59:28.005Z,5.53
2023-03-26T21:01:56.979Z,8.25
2023-03-26T21:04:26.144Z,6.30
2023-03-26T21:07:00.295Z,8.18
2023-03-26T21:09:34.791Z,7.10
2023-03-26T21:12:06.016Z,7.43
2023-03-26T21:14:41.424Z,6.53
2023-03-26T21:17:22.261Z,6.78
2023-03-26T21:19:50.124Z,8.88
2023-03-26T21:22:41.172Z,4.72
2023-03-26T21:25:22.797Z,5.32
2023-03-26T21:28:09.167Z,5.03
2023-03-26T21:30:37.441Z,3.90
2023-03-26T21:33:06.243Z,3.28
2023-03-26T21:35:34.771Z,3.45
2023-03-26T21:38:04.725Z,2.67
2023-03-26T21:40:33.075Z,3.92
2023-03-26T21:43:01.063Z,3.28
2023-03-26T21:45:28.831Z,5.65
2023-03-26T21:47:57.032Z,4.85
2023-03-26T21:50:24.782Z,5.53
2023-03-26T21:52:52.627Z,2.28
2023-03-26T21:55:22.764Z,3.65
2023-03-26T21:58:13.198Z,2.45
2023-03-26T22:01:13.310Z,3.45
2023-03-26T22:03:47.001Z,3.05
2023-03-26T22:06:25.744Z,3.00
2023-03-26T22:08:53.553Z,2.22
2023-03-26T22:11:20.966Z,3.35
2023-03-26T22:13:48.391Z,3.47
2023-03-26T22:16:18.777Z,1.92
2023-03-26T22:18:46.244Z,1.17
2023-03-26T22:21:14.098Z,3.22
2023-03-26T22:23:41.831Z,1.30
2023-03-26T22:26:09.518Z,2.65
2023-03-26T22:28:37.199Z,3.92
2023-03-26T22:31:08.278Z,1.85
2023-03-26T22:33:36.070Z,1.48
2023-03-26T22:36:03.626Z,3.90
2023-03-26T22:38:31.336Z,2.60
2023-03-26T22:40:58.974Z,2.70
2023-03-26T22:43:26.514Z,4.25
2023-03-26T22:45:55.011Z,2.95
2023-03-26T22:48:23.813Z,3.15
2023-03-26T22:51:05.459Z,5.00
2023-03-26T22:53:33.138Z,2.37
2023-03-26T22:56:00.773Z,7.30
2023-03-26T22:58:28.623Z,1.85
2023-03-26T23:01:14.565Z,2.85
2023-03-26T23:03:43.038Z,3.33
2023-03-26T23:06:12.046Z,2.47
2023-03-26T23:08:40.055Z,3.70
2023-03-26T23:11:13.172Z,1.80
2023-03-26T23:13:41.720Z,1.73
2023-03-26T23:16:10.232Z,3.25
2023-03-26T23:18:38.150Z,1.90
2023-03-26T23:21:12.006Z,1.00
2023-03-26T23:23:39.955Z,3.42
2023-03-26T23:26:07.717Z,3.28
2023-03-26T23:28:35.655Z,2.70
2023-03-26T23:31:05.583Z,2.10
2023-03-26T23:33:35.383Z,1.40
2023-03-26T23:36:08.800Z,1.55
2023-03-26T23:38:43.422Z,1.65
2023-03-26T23:41:14.837Z,2.55
2023-03-26T23:43:54.878Z,3.00
2023-03-26T23:46:25.118Z,1.40
2023-03-26T23:48:53.250Z,2.05
2023-03-26T23:51:21.533Z,1.62
2023-03-26T23:53:49.530Z,4.07
2023-03-26T23:56:17.566Z,2.45
2023-03-26T23:58:45.254Z,2.25
